Neepawa, Canada
Current Conditions -  °F | °C
As of 9:00 AM on Thursday 18 Dec 2014 (Local Time) from CYBR Reporting Station
Broken Clouds Broken Clouds  
Wind Chill: -16°   Ceiling: 24000
Heat Index: -4°   Visibility: 15mi
Dew Point: -8°   Wind: 6mph
Humidity: 85%   Direction: 60°ENE
Pressure: 30.13"   Gusts: NA
Location:  50.23°N, 99.45°W
Report Text: CYBR 181500Z 06005KT 15SM FEW002 SCT180 BKN240 M20/M22 A3013 RMK ST2AC2CI3 SLP249
Loading
Personal Weather Stations






























Interactive Weather Map New forecast layout! Learn more

10-Day Weather Forecast

Advertisements
Track Severe Weather on mobile